Tor Futura — OZZE2 — position and weather

sailwx.info

Track history (hours):
 
Tides and Currents Weather Stations Pressure Air Temp Water Temp Dewpoint Dewpoint Depression Visibility Wind Speed Wind Dir Waves Ship Positions

Tor Futura

Last reported at 2014-Oct-21 11:03 UTC. Time now 2014-Oct-21 12:08 UTC.
Position N 43°19' E 005°22'.

Length 183.1 m; beam 25.2 m; draft 7.8 m.

Type: Cargo ship. MMSI: 219927000.

Date/timePositionNaut miles runAvg speedWind from/ knotsBaromVisibWave heightAir tempDewpointWater temp
2014-Oct-21 11:03N 43°19' E 005°22'0 0.0
2014-Oct-21 10:21N 43°19' E 005°22'0 0.0
2014-Oct-21 09:09N 43°19' E 005°22'0 0.0
2014-Oct-21 08:21N 43°19' E 005°22'0 0.0
2014-Oct-21 07:27N 43°19' E 005°22'0 0.0
2014-Oct-21 06:27N 43°19' E 005°22'0 0.0
2014-Oct-21 05:27N 43°19' E 005°22'0 0.0
2014-Oct-21 04:24N 43°19' E 005°22'0 0.0
2014-Oct-21 03:15N 43°19' E 005°22'0 0.0
2014-Oct-21 02:30N 43°19' E 005°22'0 0.0
2014-Oct-21 01:33N 43°19' E 005°22'0 0.0
2014-Oct-21 00:33N 43°19' E 005°22'0 0.0
2014-Oct-20 23:33N 43°19' E 005°22'0 0.0
2014-Oct-20 22:30N 43°19' E 005°22'0 0.0
2014-Oct-20 21:33N 43°19' E 005°22'0 0.0
2014-Oct-20 20:33N 43°19' E 005°22'0 0.0
2014-Oct-20 19:33N 43°19' E 005°22'0 0.0
2014-Oct-20 18:24N 43°19' E 005°22'0 0.0
2014-Oct-20 17:27N 43°19' E 005°22'0 0.0
2014-Oct-20 16:12N 43°19' E 005°22'0 0.0
2014-Oct-20 15:27N 43°19' E 005°22'0 0.0
2014-Oct-20 14:09N 43°19' E 005°22'0 0.0
2014-Oct-20 13:30N 43°19' E 005°22'0 0.0
2014-Oct-20 12:33N 43°19' E 005°22'0 0.0
2014-Oct-20 11:33N 43°19' E 005°22'0 0.0
2014-Oct-20 10:33N 43°19' E 005°22'0 0.0
2014-Oct-20 09:33N 43°19' E 005°22'0 0.0
2014-Oct-20 08:33N 43°19' E 005°22'0 0.0
2014-Oct-20 07:33N 43°19' E 005°22'0 0.1
2014-Oct-20 06:33N 43°19' E 005°21'7 6.7
2014-Oct-20 05:33N 43°17' E 005°13'4414.0
2014-Oct-20 02:27N 42°37' E 005°37'1516.2
2014-Oct-20 01:31N 42°24' E 005°47'2015.9
2014-Oct-20 00:16N 42°07' E 006°00'1416.0
2014-Oct-19 23:25N 41°55' E 006°09'1416.0
2014-Oct-19 22:33N 41°43' E 006°18'1616.1
2014-Oct-19 21:33N 41°28' E 006°28'1616.2
2014-Oct-19 20:33N 41°14' E 006°38'1616.3
2014-Oct-19 19:33N 41°00' E 006°48'2016.2
2014-Oct-19 18:19N 40°42' E 007°01'1616.4
2014-Oct-19 17:22N 40°29' E 007°11'1815.8
2014-Oct-19 16:15N 40°13' E 007°23'1716.5
2014-Oct-19 15:12N 39°58' E 007°33'2615.6
2014-Oct-19 13:31N 39°35' E 007°50'1716.2
2014-Oct-19 12:27N 39°20' E 008°01'1516.3
2014-Oct-19 11:33N 39°07' E 008°10'1815.7
2014-Oct-19 10:24N 38°51' E 008°21'1415.8
2014-Oct-19 09:30N 38°42' E 008°35'1515.9
2014-Oct-19 08:33N 38°33' E 008°50'1716.2
2014-Oct-19 07:30N 38°22' E 009°07'1516.2
2014-Oct-19 06:33N 38°13' E 009°23'1616.4
2014-Oct-19 05:33N 38°02' E 009°39'1716.7
2014-Oct-19 04:33N 37°52' E 009°56'1616.3
2014-Oct-19 03:32N 37°43' E 010°13'1914.9
2014-Oct-19 02:16N 37°26' E 010°25'1115.8
2014-Oct-19 01:32N 37°15' E 010°24'1616.0
2014-Oct-19 00:33N 36°59' E 010°24'13 2.5
2014-Oct-18 19:33N 36°48' E 010°16'0 0.0
2014-Oct-18 06:04N 36°48' E 010°16'2 3.8
2014-Oct-18 05:31N 36°48' E 010°19'9 7.6
2014-Oct-18 04:18N 36°57' E 010°23'912.4
2014-Oct-18 03:32N 37°06' E 010°24'1312.7
2014-Oct-18 02:33N 37°19' E 010°23'1312.8
2014-Oct-18 01:33N 37°31' E 010°20'1312.8
2014-Oct-18 00:33N 37°33' E 010°04'1312.5
2014-Oct-17 23:32N 37°41' E 009°51'1513.3
2014-Oct-17 22:27N 37°51' E 009°38'1213.1
2014-Oct-17 21:33N 37°60' E 009°27'1313.1
2014-Oct-17 20:33N 38°09' E 009°15'1313.2
2014-Oct-17 19:33N 38°18' E 009°04'1313.1
2014-Oct-17 18:32N 38°27' E 008°52'1313.2
2014-Oct-17 17:33N 38°37' E 008°40'1413.4
2014-Oct-17 16:33N 38°46' E 008°28'1413.5
2014-Oct-17 15:32N 38°57' E 008°17'1914.1
2014-Oct-17 14:11N 39°13' E 008°05'1218.3
2014-Oct-17 13:31N 39°24' E 007°58'1313.6
2014-Oct-17 12:33N 39°36' E 007°49'21913.7
2014-Oct-16 20:33N 42°47' E 005°28'2713.2
2014-Oct-16 18:30N 43°11' E 005°10'1111.3
2014-Oct-16 17:31N 43°20' E 005°17'3 0.9
2014-Oct-16 13:32N 43°19' E 005°22'0 0.0
2014-Oct-16 12:20N 43°19' E 005°22'0 0.0
2014-Oct-16 11:20N 43°19' E 005°22'0 0.0
2014-Oct-16 10:22N 43°19' E 005°22'1 0.6
2014-Oct-16 09:34N 43°19' E 005°21'9 8.8
2014-Oct-16 08:34N 43°15' E 005°11'1713.8
2014-Oct-16 07:20N 42°59' E 005°20'1412.6
2014-Oct-16 06:11N 42°46' E 005°29'1314.0
2014-Oct-16 05:17N 42°35' E 005°38'27113.4
2014-Oct-15 09:03N 38°41' E 008°38'713.6
2014-Oct-15 08:32N 38°37' E 008°45'11412.7
2014-Oct-14 23:33N 37°14' E 010°24'1513.1
2014-Oct-14 22:26N 36°59' E 010°24'2 0.0
2014-Oct-13 04:13N 36°57' E 010°23'3613.3
2014-Oct-13 01:30N 37°33' E 010°18'1313.5
2014-Oct-13 00:33N 37°34' E 010°02'1313.1
2014-Oct-12 23:33N 37°43' E 009°49'1413.4
2014-Oct-12 22:28N 37°53' E 009°36'1313.6
2014-Oct-12 21:33N 38°01' E 009°24'1413.5
2014-Oct-12 20:33N 38°11' E 009°12'1313.4
2014-Oct-12 19:33N 38°19' E 008°59'1413.5
2014-Oct-12 18:33N 38°30' E 008°48'1413.5
2014-Oct-12 17:32N 38°40' E 008°36'1413.4
2014-Oct-12 16:28N 38°50' E 008°23'1213.2
2014-Oct-12 15:33N 39°00' E 008°15'1513.7
2014-Oct-12 14:27N 39°14' E 008°05'1213.0
2014-Oct-12 13:33N 39°24' E 007°58'1313.0
2014-Oct-12 12:33N 39°35' E 007°50'2913.7
2014-Oct-12 10:29N 40°00' E 007°32'1515.0
2014-Oct-12 09:29N 40°13' E 007°22'1515.3
2014-Oct-12 08:29N 40°26' E 007°13'1213.1
2014-Oct-12 07:32N 40°37' E 007°05'1313.1
2014-Oct-12 06:31N 40°49' E 006°56'1414.1
2014-Oct-12 05:31N 41°01' E 006°47'12113.5
2014-Oct-11 20:33N 42°47' E 005°28'1413.6
2014-Oct-11 19:33N 42°59' E 005°19'1413.5
2014-Oct-11 18:32N 43°11' E 005°10'1211.6
2014-Oct-11 17:32N 43°21' E 005°19'3 2.9
2014-Oct-11 16:31N 43°19' E 005°22'0 0.0
2014-Oct-11 15:28N 43°19' E 005°22'0 0.0
2014-Oct-11 14:28N 43°19' E 005°22'0 0.0
2014-Oct-11 13:31N 43°19' E 005°22'0 0.0
2014-Oct-11 12:31N 43°19' E 005°22'0 0.0
2014-Oct-11 11:31N 43°19' E 005°22'  
Track history (hours):
 
Tides and Currents Weather Stations Pressure Air Temp Water Temp Dewpoint Dewpoint Depression Visibility Wind Speed Wind Dir Waves Ship Positions

Tor Futura

Last reported at 2014-Oct-21 11:03 UTC. Time now 2014-Oct-21 12:08 UTC.
Position N 43°19' E 005°22'.

Length 183.1 m; beam 25.2 m; draft 7.8 m.

Type: Cargo ship. MMSI: 219927000.

Date/timePositionNaut miles runAvg speedWind from/ knotsBaromVisibWave heightAir tempDewpointWater temp
2014-Oct-21 11:03N 43°19' E 005°22'0 0.0
2014-Oct-21 10:21N 43°19' E 005°22'0 0.0
2014-Oct-21 09:09N 43°19' E 005°22'0 0.0
2014-Oct-21 08:21N 43°19' E 005°22'0 0.0
2014-Oct-21 07:27N 43°19' E 005°22'0 0.0
2014-Oct-21 06:27N 43°19' E 005°22'0 0.0
2014-Oct-21 05:27N 43°19' E 005°22'0 0.0
2014-Oct-21 04:24N 43°19' E 005°22'0 0.0
2014-Oct-21 03:15N 43°19' E 005°22'0 0.0
2014-Oct-21 02:30N 43°19' E 005°22'0 0.0
2014-Oct-21 01:33N 43°19' E 005°22'0 0.0
2014-Oct-21 00:33N 43°19' E 005°22'0 0.0
2014-Oct-20 23:33N 43°19' E 005°22'0 0.0
2014-Oct-20 22:30N 43°19' E 005°22'0 0.0
2014-Oct-20 21:33N 43°19' E 005°22'0 0.0
2014-Oct-20 20:33N 43°19' E 005°22'0 0.0
2014-Oct-20 19:33N 43°19' E 005°22'0 0.0
2014-Oct-20 18:24N 43°19' E 005°22'0 0.0
2014-Oct-20 17:27N 43°19' E 005°22'0 0.0
2014-Oct-20 16:12N 43°19' E 005°22'0 0.0
2014-Oct-20 15:27N 43°19' E 005°22'0 0.0
2014-Oct-20 14:09N 43°19' E 005°22'0 0.0
2014-Oct-20 13:30N 43°19' E 005°22'0 0.0
2014-Oct-20 12:33N 43°19' E 005°22'0 0.0
2014-Oct-20 11:33N 43°19' E 005°22'0 0.0
2014-Oct-20 10:33N 43°19' E 005°22'0 0.0
2014-Oct-20 09:33N 43°19' E 005°22'0 0.0
2014-Oct-20 08:33N 43°19' E 005°22'0 0.0
2014-Oct-20 07:33N 43°19' E 005°22'0 0.1
2014-Oct-20 06:33N 43°19' E 005°21'7 6.7
2014-Oct-20 05:33N 43°17' E 005°13'4414.0
2014-Oct-20 02:27N 42°37' E 005°37'1516.2
2014-Oct-20 01:31N 42°24' E 005°47'2015.9
2014-Oct-20 00:16N 42°07' E 006°00'1416.0
2014-Oct-19 23:25N 41°55' E 006°09'1416.0
2014-Oct-19 22:33N 41°43' E 006°18'1616.1
2014-Oct-19 21:33N 41°28' E 006°28'1616.2
2014-Oct-19 20:33N 41°14' E 006°38'1616.3
2014-Oct-19 19:33N 41°00' E 006°48'2016.2
2014-Oct-19 18:19N 40°42' E 007°01'1616.4
2014-Oct-19 17:22N 40°29' E 007°11'1815.8
2014-Oct-19 16:15N 40°13' E 007°23'1716.5
2014-Oct-19 15:12N 39°58' E 007°33'2615.6
2014-Oct-19 13:31N 39°35' E 007°50'1716.2
2014-Oct-19 12:27N 39°20' E 008°01'1516.3
2014-Oct-19 11:33N 39°07' E 008°10'1815.7
2014-Oct-19 10:24N 38°51' E 008°21'1415.8
2014-Oct-19 09:30N 38°42' E 008°35'1515.9
2014-Oct-19 08:33N 38°33' E 008°50'1716.2
2014-Oct-19 07:30N 38°22' E 009°07'1516.2
2014-Oct-19 06:33N 38°13' E 009°23'1616.4
2014-Oct-19 05:33N 38°02' E 009°39'1716.7
2014-Oct-19 04:33N 37°52' E 009°56'1616.3
2014-Oct-19 03:32N 37°43' E 010°13'1914.9
2014-Oct-19 02:16N 37°26' E 010°25'1115.8
2014-Oct-19 01:32N 37°15' E 010°24'1616.0
2014-Oct-19 00:33N 36°59' E 010°24'13 2.5
2014-Oct-18 19:33N 36°48' E 010°16'0 0.0
2014-Oct-18 06:04N 36°48' E 010°16'2 3.8
2014-Oct-18 05:31N 36°48' E 010°19'9 7.6
2014-Oct-18 04:18N 36°57' E 010°23'912.4
2014-Oct-18 03:32N 37°06' E 010°24'1312.7
2014-Oct-18 02:33N 37°19' E 010°23'1312.8
2014-Oct-18 01:33N 37°31' E 010°20'1312.8
2014-Oct-18 00:33N 37°33' E 010°04'1312.5
2014-Oct-17 23:32N 37°41' E 009°51'1513.3
2014-Oct-17 22:27N 37°51' E 009°38'1213.1
2014-Oct-17 21:33N 37°60' E 009°27'1313.1
2014-Oct-17 20:33N 38°09' E 009°15'1313.2
2014-Oct-17 19:33N 38°18' E 009°04'1313.1
2014-Oct-17 18:32N 38°27' E 008°52'1313.2
2014-Oct-17 17:33N 38°37' E 008°40'1413.4
2014-Oct-17 16:33N 38°46' E 008°28'1413.5
2014-Oct-17 15:32N 38°57' E 008°17'1914.1
2014-Oct-17 14:11N 39°13' E 008°05'1218.3
2014-Oct-17 13:31N 39°24' E 007°58'1313.6
2014-Oct-17 12:33N 39°36' E 007°49'21913.7
2014-Oct-16 20:33N 42°47' E 005°28'2713.2
2014-Oct-16 18:30N 43°11' E 005°10'1111.3
2014-Oct-16 17:31N 43°20' E 005°17'3 0.9
2014-Oct-16 13:32N 43°19' E 005°22'0 0.0
2014-Oct-16 12:20N 43°19' E 005°22'0 0.0
2014-Oct-16 11:20N 43°19' E 005°22'0 0.0
2014-Oct-16 10:22N 43°19' E 005°22'1 0.6
2014-Oct-16 09:34N 43°19' E 005°21'9 8.8
2014-Oct-16 08:34N 43°15' E 005°11'1713.8
2014-Oct-16 07:20N 42°59' E 005°20'1412.6
2014-Oct-16 06:11N 42°46' E 005°29'1314.0
2014-Oct-16 05:17N 42°35' E 005°38'27113.4
2014-Oct-15 09:03N 38°41' E 008°38'713.6
2014-Oct-15 08:32N 38°37' E 008°45'11412.7
2014-Oct-14 23:33N 37°14' E 010°24'1513.1
2014-Oct-14 22:26N 36°59' E 010°24'2 0.0
2014-Oct-13 04:13N 36°57' E 010°23'3613.3
2014-Oct-13 01:30N 37°33' E 010°18'1313.5
2014-Oct-13 00:33N 37°34' E 010°02'1313.1
2014-Oct-12 23:33N 37°43' E 009°49'1413.4
2014-Oct-12 22:28N 37°53' E 009°36'1313.6
2014-Oct-12 21:33N 38°01' E 009°24'1413.5
2014-Oct-12 20:33N 38°11' E 009°12'1313.4
2014-Oct-12 19:33N 38°19' E 008°59'1413.5
2014-Oct-12 18:33N 38°30' E 008°48'1413.5
2014-Oct-12 17:32N 38°40' E 008°36'1413.4
2014-Oct-12 16:28N 38°50' E 008°23'1213.2
2014-Oct-12 15:33N 39°00' E 008°15'1513.7
2014-Oct-12 14:27N 39°14' E 008°05'1213.0
2014-Oct-12 13:33N 39°24' E 007°58'1313.0
2014-Oct-12 12:33N 39°35' E 007°50'2913.7
2014-Oct-12 10:29N 40°00' E 007°32'1515.0
2014-Oct-12 09:29N 40°13' E 007°22'1515.3
2014-Oct-12 08:29N 40°26' E 007°13'1213.1
2014-Oct-12 07:32N 40°37' E 007°05'1313.1
2014-Oct-12 06:31N 40°49' E 006°56'1414.1
2014-Oct-12 05:31N 41°01' E 006°47'12113.5
2014-Oct-11 20:33N 42°47' E 005°28'1413.6
2014-Oct-11 19:33N 42°59' E 005°19'1413.5
2014-Oct-11 18:32N 43°11' E 005°10'1211.6
2014-Oct-11 17:32N 43°21' E 005°19'3 2.9
2014-Oct-11 16:31N 43°19' E 005°22'0 0.0
2014-Oct-11 15:28N 43°19' E 005°22'0 0.0
2014-Oct-11 14:28N 43°19' E 005°22'0 0.0
2014-Oct-11 13:31N 43°19' E 005°22'0 0.0
2014-Oct-11 12:31N 43°19' E 005°22'0 0.0
2014-Oct-11 11:31N 43°19' E 005°22'  

Dump ship's entire track history